Time;durP1;ratioP1;P1;durP2;ratioP2;P2;SDS_P1;SDS_P2;PMS_P1;PMS_P2;Temp;Humidity;BMP_temperature;BMP_pressure;BME280_temperature;BME280_humidity;BME280_pressure;Samples;Min_cycle;Max_cycle;Signal;HPM_P1;HPM_P2
2022/01/11 20:39:42;;;;;;;5.43;0.80;;;;;;;16.54;46.88;95461.53;5049840;28;20392;-61
2022/01/11 20:42:09;;;;;;;0.98;0.82;;;;;;;17.59;44.87;95460.31;5040653;28;20040;-61
2022/01/11 20:44:35;;;;;;;2.30;0.80;;;;;;;18.13;43.18;95458.03;5031028;28;20045;-61
2022/01/11 20:47:01;;;;;;;0.73;0.73;;;;;;;18.36;42.50;95452.91;5007825;28;20060;-62
2022/01/11 20:49:26;;;;;;;0.60;0.60;;;;;;;18.46;41.87;95459.47;5023114;28;20049;-62
2022/01/11 20:54:47;;;;;;;0.98;0.70;;;;;;;18.51;41.39;95468.34;5012680;28;20121;-61
2022/01/11 20:57:13;;;;;;;2.33;1.05;;;;;;;18.51;41.19;95464.91;5048857;28;20041;-62
2022/01/11 20:59:38;;;;;;;1.60;0.70;;;;;;;18.54;41.19;95467.06;5006871;28;20063;-61
2022/01/11 21:02:05;;;;;;;0.80;0.60;;;;;;;18.56;41.01;95462.38;5021149;28;20080;-61
2022/01/11 21:04:31;;;;;;;0.93;0.70;;;;;;;18.54;40.97;95452.09;5036725;28;20050;-61
2022/01/11 21:06:56;;;;;;;0.80;0.80;;;;;;;17.87;42.40;95459.09;5037008;28;20048;-61
2022/01/11 21:09:22;;;;;;;1.30;0.60;;;;;;;17.79;42.71;95454.88;5043236;28;20029;-61
2022/01/11 21:11:47;;;;;;;0.65;0.60;;;;;;;17.78;42.74;95448.00;5000147;28;20041;-61
2022/01/11 21:14:14;;;;;;;1.00;0.60;;;;;;;17.82;42.52;95458.91;5030768;28;20111;-61
2022/01/11 21:22:36;;;;;;;1.45;0.63;;;;;;;17.81;42.38;95471.25;4970291;28;20047;-61
2022/01/11 21:25:01;;;;;;;1.13;0.75;;;;;;;17.80;42.22;95474.94;4954033;28;20108;-61
2022/01/11 21:27:29;;;;;;;0.82;0.70;;;;;;;17.82;42.25;95480.78;4919185;28;20043;-61
2022/01/11 21:29:54;;;;;;;1.48;0.50;;;;;;;17.83;42.30;95482.38;4927859;29;20040;-61
2022/01/11 21:32:20;;;;;;;0.60;0.60;;;;;;;17.85;42.21;95488.25;4941714;28;20050;-61
2022/01/11 21:34:47;;;;;;;0.77;0.60;;;;;;;17.84;42.23;95478.75;4944878;28;20040;-61
2022/01/11 21:37:14;;;;;;;1.00;0.70;;;;;;;17.83;42.12;95477.09;4931246;29;20039;-61
2022/01/11 21:39:39;;;;;;;1.27;0.63;;;;;;;17.82;42.31;95483.41;4939489;28;20043;-61
2022/01/11 21:42:05;;;;;;;0.60;0.60;;;;;;;17.83;42.06;95482.38;4925719;29;20046;-60
2022/01/11 21:44:38;;;;;;;0.93;0.60;;;;;;;17.83;42.00;95484.19;4910605;29;20032;-61
2022/01/11 21:47:03;;;;;;;0.65;0.65;;;;;;;17.83;41.99;95484.19;4928176;29;20035;-61
2022/01/11 21:49:31;;;;;;;0.73;0.52;;;;;;;17.84;41.88;95489.28;4919520;29;20052;-61
2022/01/11 21:52:00;;;;;;;0.55;0.55;;;;;;;17.83;42.03;95487.63;4935391;29;20039;-60
2022/01/11 21:54:25;;;;;;;0.63;0.63;;;;;;;17.81;42.07;95494.94;4914187;29;20086;-61
2022/01/11 21:56:51;;;;;;;0.65;0.65;;;;;;;17.81;41.99;95497.56;4948157;28;20038;-61
2022/01/11 21:59:16;;;;;;;0.68;0.60;;;;;;;17.83;42.07;95497.34;4982628;28;20045;-61
2022/01/11 22:01:42;;;;;;;0.95;0.80;;;;;;;17.81;42.03;95496.78;4996980;28;20045;-61
2022/01/11 22:04:07;;;;;;;0.77;0.55;;;;;;;17.82;41.85;95496.56;5016909;28;20036;-61
2022/01/11 22:06:32;;;;;;;0.95;0.60;;;;;;;17.84;42.03;95501.59;5025967;28;20102;-62
2022/01/11 22:08:58;;;;;;;0.50;0.50;;;;;;;17.83;41.91;95498.16;5000915;28;20025;-61
2022/01/11 22:11:23;;;;;;;0.68;0.68;;;;;;;17.78;41.75;95498.00;4999743;28;20029;-60
2022/01/11 22:14:01;;;;;;;1.27;0.60;;;;;;;17.82;41.83;95512.34;4996004;28;20021;-61
2022/01/11 22:19:10;;;;;;;0.52;0.52;;;;;;;17.81;41.88;95509.94;5017455;28;20117;-61
2022/01/11 22:21:37;;;;;;;0.60;0.50;;;;;;;17.78;41.77;95503.25;5005383;28;20052;-61
2022/01/11 22:24:05;;;;;;;0.50;0.50;;;;;;;17.83;41.75;95519.19;4995751;28;20031;-61
2022/01/11 22:26:30;;;;;;;0.60;0.60;;;;;;;17.78;41.76;95504.06;5012733;28;20092;-61
2022/01/11 22:28:56;;;;;;;1.75;0.50;;;;;;;17.79;41.97;95508.31;5014386;28;20040;-61
2022/01/11 22:31:21;;;;;;;0.68;0.68;;;;;;;17.80;41.75;95511.75;5036843;28;20040;-61
2022/01/11 22:33:47;;;;;;;0.50;0.50;;;;;;;17.79;41.88;95518.03;5006557;28;20041;-61
2022/01/11 22:36:12;;;;;;;0.68;0.63;;;;;;;17.81;41.96;95515.97;5008065;28;20033;-60
2022/01/11 22:38:38;;;;;;;0.60;0.60;;;;;;;17.77;41.83;95514.81;5012383;28;20040;-61
2022/01/11 22:41:03;;;;;;;0.60;0.50;;;;;;;17.75;41.73;95512.38;5013674;28;20033;-61
2022/01/11 22:43:28;;;;;;;0.82;0.60;;;;;;;17.81;41.87;95521.25;5014415;28;20029;-61
2022/01/11 22:45:55;;;;;;;0.60;0.60;;;;;;;17.81;41.80;95523.88;5008549;28;20029;-61
2022/01/11 22:48:21;;;;;;;0.52;0.52;;;;;;;17.79;42.06;95521.47;4991303;28;20021;-61
2022/01/11 22:50:47;;;;;;;0.52;0.52;;;;;;;17.75;41.75;95516.84;4993911;28;20030;-61
2022/01/11 22:53:12;;;;;;;1.35;0.60;;;;;;;17.79;41.78;95526.72;5000733;28;20030;-61
2022/01/11 22:55:38;;;;;;;0.60;0.60;;;;;;;17.75;41.75;95515.03;5016692;28;20060;-61
2022/01/11 22:58:03;;;;;;;0.63;0.60;;;;;;;17.78;41.74;95527.75;5005686;28;20118;-61
2022/01/11 23:00:37;;;;;;;0.50;0.50;;;;;;;17.79;41.68;95521.47;5028022;28;20037;-62
2022/01/11 23:03:03;;;;;;;0.80;0.60;;;;;;;17.75;41.71;95512.38;5027690;28;20087;-61
2022/01/11 23:05:28;;;;;;;0.93;0.63;;;;;;;17.74;41.85;95512.59;4997374;28;20037;-61
2022/01/11 23:07:56;;;;;;;0.50;0.50;;;;;;;17.77;41.86;95517.44;5017775;28;20030;-61
2022/01/11 23:10:21;;;;;;;0.95;0.50;;;;;;;17.79;41.70;95518.03;5026290;28;20030;-61
2022/01/11 23:15:31;;;;;;;0.52;0.50;;;;;;;17.76;41.78;95515.81;5020277;28;20039;-61
2022/01/11 23:17:56;;;;;;;1.35;0.52;;;;;;;17.76;41.61;95513.19;5010431;28;20018;-61
2022/01/11 23:20:22;;;;;;;0.88;0.65;;;;;;;17.75;41.60;95512.38;5014136;28;20029;-61
2022/01/11 23:22:47;;;;;;;0.60;0.60;;;;;;;17.79;41.95;95521.47;5007906;28;20038;-61
2022/01/11 23:25:12;;;;;;;0.60;0.60;;;;;;;17.76;41.68;95523.72;4982357;28;20044;-61
2022/01/11 23:27:39;;;;;;;0.80;0.50;;;;;;;17.75;41.72;95517.66;5001813;28;20037;-61
2022/01/11 23:30:06;;;;;;;0.60;0.60;;;;;;;17.75;41.70;95522.13;4996366;28;20033;-61
2022/01/11 23:32:32;;;;;;;0.50;0.50;;;;;;;17.78;41.57;95533.03;5011773;28;20095;-62
2022/01/11 23:34:57;;;;;;;0.50;0.50;;;;;;;17.78;41.73;95526.94;5015275;28;20022;-61
2022/01/11 23:37:28;;;;;;;0.40;0.40;;;;;;;17.76;41.80;95527.16;5033425;28;20036;-61
2022/01/11 23:40:31;;;;;;;;;;;;;;;;;;;;;
2022/01/11 23:47:25;;;;;;;0.60;0.60;;;;;;;17.76;41.61;95523.72;5016554;28;20021;-61
2022/01/11 23:49:51;;;;;;;0.50;0.50;;;;;;;17.74;41.74;95529.22;5018430;28;20034;-61
2022/01/11 23:52:16;;;;;;;0.50;0.50;;;;;;;17.77;41.48;95525.34;5028446;28;20026;-61
2022/01/11 23:54:41;;;;;;;0.47;0.47;;;;;;;17.76;41.70;95529.81;5021091;28;20029;-62
2022/01/11 23:57:08;;;;;;;1.02;0.55;;;;;;;17.77;41.53;95522.69;5027882;28;20033;-61
2022/01/11 23:59:36;;;;;;;0.50;0.50;;;;;;;17.76;41.41;95536.88;5018021;28;20112;-61
